Time;durP1;ratioP1;P1;durP2;ratioP2;P2;SDS_P1;SDS_P2;PMS_P1;PMS_P2;Temp;Humidity;BMP_temperature;BMP_pressure;BME280_temperature;BME280_humidity;BME280_pressure;Samples;Min_cycle;Max_cycle;Signal;HPM_P1;HPM_P2
2022/12/22 06:38:28;;;;;;;0.50;0.50;;;;;;;;;;7367676;19;20195;-64
2022/12/22 06:40:53;;;;;;;0.47;0.47;;;;;;;;;;7378470;19;20908;-63
2022/12/22 06:43:19;;;;;;;0.30;0.30;;;;;;;;;;7373746;19;20149;-64
2022/12/22 06:45:44;;;;;;;0.30;0.30;;;;;;;;;;7372434;19;20113;-63
2022/12/22 06:48:11;;;;;;;0.30;0.30;;;;;;;;;;7383328;19;20504;-63
2022/12/22 06:50:37;;;;;;;0.30;0.30;;;;;;;;;;7358239;19;20121;-63
2022/12/22 06:53:03;;;;;;;0.50;0.50;;;;;;;;;;7371730;19;20155;-64
2022/12/22 06:55:28;;;;;;;0.40;0.40;;;;;;;;;;7375397;19;20194;-63
2022/12/22 06:57:53;;;;;;;0.27;0.27;;;;;;;;;;7354650;19;20530;-63
2022/12/22 07:00:19;;;;;;;0.43;0.43;;;;;;;;;;7358907;19;20132;-64
2022/12/22 07:02:45;;;;;;;0.47;0.47;;;;;;;;;;7358756;19;20164;-63
2022/12/22 07:05:10;;;;;;;0.50;0.50;;;;;;;;;;7348360;19;22010;-63
2022/12/22 07:07:35;;;;;;;0.30;0.30;;;;;;;;;;7352832;19;20760;-63
2022/12/22 07:10:01;;;;;;;0.37;0.37;;;;;;;;;;7363882;19;20579;-64
2022/12/22 07:12:26;;;;;;;0.40;0.40;;;;;;;;;;7355787;19;20141;-64
2022/12/22 07:14:51;;;;;;;0.23;0.23;;;;;;;;;;7362998;19;20124;-63
2022/12/22 07:17:17;;;;;;;0.30;0.30;;;;;;;;;;7358809;19;20124;-63
2022/12/22 07:19:42;;;;;;;0.30;0.30;;;;;;;;;;7358173;19;20129;-63
2022/12/22 07:22:07;;;;;;;0.20;0.20;;;;;;;;;;7347979;19;20133;-63
2022/12/22 07:24:33;;;;;;;0.30;0.30;;;;;;;;;;7364343;19;20652;-63
2022/12/22 07:26:58;;;;;;;0.20;0.20;;;;;;;;;;7358567;19;20123;-63
2022/12/22 07:29:23;;;;;;;0.30;0.30;;;;;;;;;;7370448;19;20139;-63
2022/12/22 07:31:49;;;;;;;0.30;0.30;;;;;;;;;;7379495;19;20121;-63
2022/12/22 07:34:14;;;;;;;0.20;0.20;;;;;;;;;;7371792;19;20152;-63
2022/12/22 07:36:39;;;;;;;0.20;0.20;;;;;;;;;;7370624;19;20145;-64
2022/12/22 07:39:05;;;;;;;0.30;0.30;;;;;;;;;;7373475;19;20155;-63
2022/12/22 07:44:14;;;;;;;0.20;0.20;;;;;;;;;;7374802;19;20166;-63
2022/12/22 07:46:40;;;;;;;0.30;0.30;;;;;;;;;;7366187;19;20129;-63
2022/12/22 07:51:50;;;;;;;0.20;0.20;;;;;;;;;;7376497;19;20144;-63
2022/12/22 07:54:16;;;;;;;0.30;0.30;;;;;;;;;;7378059;19;20495;-63
2022/12/22 07:56:42;;;;;;;0.20;0.20;;;;;;;;;;7360223;19;20121;-63
2022/12/22 07:59:07;;;;;;;0.20;0.20;;;;;;;;;;7386196;19;20133;-63
2022/12/22 08:01:33;;;;;;;0.20;0.20;;;;;;;;;;7371823;19;20136;-63
2022/12/22 08:03:58;;;;;;;0.30;0.30;;;;;;;;;;7379758;19;20148;-64
2022/12/22 08:06:23;;;;;;;0.20;0.20;;;;;;;;;;7376168;19;20151;-63
2022/12/22 08:08:49;;;;;;;0.30;0.30;;;;;;;;;;7377138;19;20711;-64
2022/12/22 08:11:15;;;;;;;0.50;0.50;;;;;;;;;;7369865;19;20144;-64
2022/12/22 08:13:42;;;;;;;0.30;0.30;;;;;;;;;;7380732;19;20663;-64
2022/12/22 08:16:09;;;;;;;0.33;0.33;;;;;;;;;;7379844;19;20121;-64
2022/12/22 08:18:35;;;;;;;0.40;0.40;;;;;;;;;;7383235;19;20132;-64
2022/12/22 08:21:01;;;;;;;0.30;0.30;;;;;;;;;;7366574;19;20125;-64
2022/12/22 08:23:27;;;;;;;0.30;0.30;;;;;;;;;;7379185;19;20182;-64
2022/12/22 08:25:57;;;;;;;0.20;0.20;;;;;;;;;;7368880;19;20597;-64
2022/12/22 08:28:23;;;;;;;0.20;0.20;;;;;;;;;;7364850;19;20214;-63
2022/12/22 08:30:48;;;;;;;0.30;0.30;;;;;;;;;;7372173;19;20121;-63
2022/12/22 08:33:14;;;;;;;0.30;0.30;;;;;;;;;;7350647;19;20155;-63
2022/12/22 08:35:39;;;;;;;0.20;0.20;;;;;;;;;;7369660;19;20233;-63
2022/12/22 08:38:05;;;;;;;0.50;0.50;;;;;;;;;;7368797;19;20129;-63
2022/12/22 08:40:31;;;;;;;1.90;0.77;;;;;;;;;;7361782;19;20175;-63
2022/12/22 08:43:01;;;;;;;0.30;0.30;;;;;;;;;;7354814;19;20688;-63
2022/12/22 08:45:27;;;;;;;0.40;0.40;;;;;;;;;;7383105;19;20121;-63
2022/12/22 08:47:52;;;;;;;0.30;0.30;;;;;;;;;;7377484;19;20144;-63
2022/12/22 08:50:17;;;;;;;0.20;0.20;;;;;;;;;;7363634;19;20141;-64
2022/12/22 08:52:43;;;;;;;0.70;0.70;;;;;;;;;;7363427;19;20141;-63
2022/12/22 08:55:08;;;;;;;0.50;0.50;;;;;;;;;;7356889;19;20575;-63
2022/12/22 08:57:34;;;;;;;0.20;0.20;;;;;;;;;;7356890;19;20149;-63
2022/12/22 08:59:59;;;;;;;0.67;0.67;;;;;;;;;;7370271;19;20483;-64
2022/12/22 09:02:24;;;;;;;0.87;0.70;;;;;;;;;;7364715;19;21072;-63
2022/12/22 09:04:50;;;;;;;0.30;0.30;;;;;;;;;;7359987;19;20134;-63
2022/12/22 09:07:15;;;;;;;0.30;0.30;;;;;;;;;;7363777;19;20117;-63
2022/12/22 09:09:41;;;;;;;0.40;0.40;;;;;;;;;;7347932;19;20113;-64
2022/12/22 09:12:06;;;;;;;0.20;0.20;;;;;;;;;;7359549;19;20129;-65
2022/12/22 09:14:32;;;;;;;0.30;0.30;;;;;;;;;;7381687;19;20136;-64
2022/12/22 09:16:58;;;;;;;0.40;0.40;;;;;;;;;;7387566;19;20120;-64
2022/12/22 09:19:23;;;;;;;0.30;0.30;;;;;;;;;;7380040;19;20117;-64
2022/12/22 09:21:49;;;;;;;0.30;0.30;;;;;;;;;;7359943;19;20132;-64
2022/12/22 09:24:14;;;;;;;0.40;0.40;;;;;;;;;;7340601;19;20140;-64
2022/12/22 09:26:39;;;;;;;0.30;0.30;;;;;;;;;;7364151;19;20133;-64
2022/12/22 09:29:05;;;;;;;0.40;0.40;;;;;;;;;;7355380;19;20470;-64
2022/12/22 09:31:30;;;;;;;2.47;0.83;;;;;;;;;;7374459;19;20486;-64
2022/12/22 09:33:56;;;;;;;0.20;0.20;;;;;;;;;;7347116;19;20606;-64
2022/12/22 09:36:23;;;;;;;0.83;0.83;;;;;;;;;;7350994;19;20815;-64
2022/12/22 09:38:49;;;;;;;0.60;0.60;;;;;;;;;;7349618;19;20126;-65
2022/12/22 09:41:16;;;;;;;0.33;0.33;;;;;;;;;;7376158;19;20117;-64
2022/12/22 09:43:42;;;;;;;3.87;0.67;;;;;;;;;;7367803;19;20175;-64
2022/12/22 09:46:28;;;;;;;0.50;0.50;;;;;;;;;;7383397;19;20117;-64
2022/12/22 09:48:54;;;;;;;0.33;0.33;;;;;;;;;;7380709;19;20458;-64
2022/12/22 09:51:21;;;;;;;0.30;0.30;;;;;;;;;;7387579;19;20127;-65
2022/12/22 09:53:51;;;;;;;0.33;0.33;;;;;;;;;;7382406;19;20153;-64
2022/12/22 09:56:17;;;;;;;1.83;0.70;;;;;;;;;;7361370;19;20529;-64
2022/12/22 09:58:43;;;;;;;0.60;0.60;;;;;;;;;;7371787;19;20148;-65
2022/12/22 10:01:27;;;;;;;0.73;0.53;;;;;;;;;;7367296;19;20837;-64
2022/12/22 10:04:27;;;;;;;0.63;0.63;;;;;;;;;;7378192;19;20499;-64
2022/12/22 10:07:17;;;;;;;0.50;0.50;;;;;;;;;;7377837;19;20200;-64
2022/12/22 10:09:43;;;;;;;0.30;0.30;;;;;;;;;;7375421;19;20124;-64
2022/12/22 10:12:16;;;;;;;0.40;0.40;;;;;;;;;;7387273;19;20125;-63
2022/12/22 10:14:44;;;;;;;0.40;0.40;;;;;;;;;;7387283;19;20154;-65
2022/12/22 10:17:13;;;;;;;1.50;1.40;;;;;;;;;;7385616;19;20588;-64
2022/12/22 10:19:38;;;;;;;0.93;0.60;;;;;;;;;;7389772;19;20121;-63
2022/12/22 10:22:18;;;;;;;0.60;0.60;;;;;;;;;;7387614;19;20125;-64
2022/12/22 10:24:44;;;;;;;0.30;0.30;;;;;;;;;;7384798;19;20582;-64
2022/12/22 10:27:09;;;;;;;0.30;0.30;;;;;;;;;;7378341;19;20125;-64
2022/12/22 10:29:35;;;;;;;0.40;0.40;;;;;;;;;;7367631;19;20125;-65
2022/12/22 10:32:11;;;;;;;0.30;0.30;;;;;;;;;;7384457;19;20129;-62
2022/12/22 10:34:36;;;;;;;0.83;0.60;;;;;;;;;;7381342;19;20129;-65
2022/12/22 10:37:04;;;;;;;0.77;0.77;;;;;;;;;;7385934;19;20128;-65
2022/12/22 10:39:31;;;;;;;0.47;0.47;;;;;;;;;;7385453;19;20129;-63
2022/12/22 10:42:06;;;;;;;1.30;0.60;;;;;;;;;;7383456;19;20124;-63
2022/12/22 10:44:33;;;;;;;0.40;0.40;;;;;;;;;;7378830;19;20228;-63
2022/12/22 10:47:00;;;;;;;0.40;0.40;;;;;;;;;;7385593;19;20136;-64
2022/12/22 10:49:28;;;;;;;0.45;0.45;;;;;;;;;;7381599;19;20121;-64
2022/12/22 10:52:14;;;;;;;0.38;0.38;;;;;;;;;;7376292;19;20168;-64
2022/12/22 10:54:41;;;;;;;0.30;0.30;;;;;;;;;;7381374;19;20135;-65
2022/12/22 10:57:12;;;;;;;0.40;0.40;;;;;;;;;;7367844;19;20154;-64
2022/12/22 10:59:49;;;;;;;0.30;0.30;;;;;;;;;;7366271;19;21481;-64
2022/12/22 11:02:30;;;;;;;0.30;0.30;;;;;;;;;;7373995;19;20523;-65
2022/12/22 11:05:05;;;;;;;0.20;0.20;;;;;;;;;;7384350;19;20602;-65
2022/12/22 11:07:33;;;;;;;0.30;0.30;;;;;;;;;;7387872;19;20446;-65
2022/12/22 11:09:58;;;;;;;1.85;0.82;;;;;;;;;;7382324;19;20125;-65
2022/12/22 11:12:59;;;;;;;1.02;0.82;;;;;;;;;;7383864;19;20185;-65
2022/12/22 11:15:40;;;;;;;1.88;0.52;;;;;;;;;;7385851;19;20124;-64
2022/12/22 11:18:44;;;;;;;0.40;0.40;;;;;;;;;;7386461;19;20610;-65
2022/12/22 11:21:48;;;;;;;0.60;0.60;;;;;;;;;;7389220;19;20196;-65
2022/12/22 11:24:31;;;;;;;0.60;0.60;;;;;;;;;;7379790;19;20168;-64
2022/12/22 11:27:28;;;;;;;0.40;0.40;;;;;;;;;;7389585;19;20129;-64
2022/12/22 11:30:09;;;;;;;0.57;0.57;;;;;;;;;;7391661;19;20137;-65
2022/12/22 11:32:56;;;;;;;0.82;0.82;;;;;;;;;;7391658;19;20151;-65
2022/12/22 11:35:43;;;;;;;0.50;0.40;;;;;;;;;;7390523;19;20124;-65
2022/12/22 11:38:27;;;;;;;0.65;0.65;;;;;;;;;;7389822;19;20567;-65
2022/12/22 11:41:05;;;;;;;3.20;0.63;;;;;;;;;;7386540;19;20466;-65
2022/12/22 11:43:49;;;;;;;0.55;0.55;;;;;;;;;;7389584;19;20537;-65
2022/12/22 11:46:22;;;;;;;0.30;0.30;;;;;;;;;;7380434;19;20133;-65
2022/12/22 11:48:50;;;;;;;0.52;0.52;;;;;;;;;;7389694;19;20141;-65
2022/12/22 11:51:25;;;;;;;0.30;0.30;;;;;;;;;;7392346;19;20201;-64
2022/12/22 11:54:10;;;;;;;0.47;0.47;;;;;;;;;;7379934;19;20152;-64
2022/12/22 11:57:15;;;;;;;0.75;0.75;;;;;;;;;;7384840;19;20619;-64
2022/12/22 11:59:42;;;;;;;0.40;0.40;;;;;;;;;;7389063;19;20137;-64
2022/12/22 12:02:48;;;;;;;0.30;0.30;;;;;;;;;;7391282;19;20642;-64
2022/12/22 12:05:21;;;;;;;0.80;0.55;;;;;;;;;;7390763;19;20129;-64
2022/12/22 12:07:50;;;;;;;0.30;0.30;;;;;;;;;;7387298;19;20172;-64
2022/12/22 12:11:06;;;;;;;0.30;0.30;;;;;;;;;;7371540;19;22941;-64
2022/12/22 12:14:02;;;;;;;0.30;0.30;;;;;;;;;;7383710;19;20674;-64
2022/12/22 12:16:27;;;;;;;0.35;0.35;;;;;;;;;;7388202;19;20129;-64
2022/12/22 12:19:03;;;;;;;0.38;0.38;;;;;;;;;;7379201;19;20546;-64
2022/12/22 12:21:49;;;;;;;0.75;0.75;;;;;;;;;;7389090;19;20773;-64
2022/12/22 12:24:35;;;;;;;0.30;0.30;;;;;;;;;;7383478;19;20168;-64
2022/12/22 12:27:36;;;;;;;3.42;0.47;;;;;;;;;;7380053;19;20153;-64
2022/12/22 12:30:04;;;;;;;0.30;0.30;;;;;;;;;;7391388;19;20137;-67
2022/12/22 12:32:37;;;;;;;0.55;0.50;;;;;;;;;;7373466;19;20649;-66
2022/12/22 12:35:15;;;;;;;0.55;0.55;;;;;;;;;;7375417;19;20129;-67
2022/12/22 12:37:42;;;;;;;0.50;0.50;;;;;;;;;;7381030;19;20621;-67
2022/12/22 12:40:13;;;;;;;0.50;0.50;;;;;;;;;;7390324;19;20602;-67
2022/12/22 12:42:41;;;;;;;0.28;0.28;;;;;;;;;;7382567;19;20635;-65
2022/12/22 12:45:36;;;;;;;0.30;0.30;;;;;;;;;;7387689;19;20187;-64
2022/12/22 12:48:30;;;;;;;0.60;0.60;;;;;;;;;;7381479;19;20171;-64
2022/12/22 12:50:56;;;;;;;0.30;0.30;;;;;;;;;;7378255;19;20257;-64
2022/12/22 12:53:21;;;;;;;0.85;0.65;;;;;;;;;;7369604;19;20172;-64
2022/12/22 12:55:51;;;;;;;0.30;0.30;;;;;;;;;;7391925;19;20502;-64
2022/12/22 12:58:46;;;;;;;0.30;0.30;;;;;;;;;;7389349;19;20125;-63
2022/12/22 13:01:40;;;;;;;0.50;0.50;;;;;;;;;;7389325;19;20148;-64
2022/12/22 13:04:07;;;;;;;0.45;0.45;;;;;;;;;;7390443;19;20161;-64
2022/12/22 13:06:45;;;;;;;0.38;0.38;;;;;;;;;;7389264;19;20142;-64
2022/12/22 13:09:16;;;;;;;15.77;1.65;;;;;;;;;;7391751;19;20221;-64
2022/12/22 13:11:41;;;;;;;0.30;0.30;;;;;;;;;;7388833;19;20136;-64
2022/12/22 13:14:07;;;;;;;0.50;0.50;;;;;;;;;;7387829;19;20157;-64
2022/12/22 13:16:35;;;;;;;1.02;0.32;;;;;;;;;;7389523;19;20125;-64
2022/12/22 13:19:04;;;;;;;0.32;0.32;;;;;;;;;;7390265;19;20149;-64
2022/12/22 13:21:38;;;;;;;0.30;0.30;;;;;;;;;;7392349;19;20513;-63
2022/12/22 13:24:16;;;;;;;0.50;0.50;;;;;;;;;;7389886;19;20171;-63
2022/12/22 13:26:43;;;;;;;2.33;0.47;;;;;;;;;;7387451;19;20124;-63
2022/12/22 13:29:18;;;;;;;0.60;0.60;;;;;;;;;;7386900;19;20125;-63
2022/12/22 13:31:45;;;;;;;0.30;0.30;;;;;;;;;;7390441;19;20113;-63
2022/12/22 13:34:29;;;;;;;0.30;0.30;;;;;;;;;;7383297;19;20173;-63
2022/12/22 13:36:57;;;;;;;0.30;0.30;;;;;;;;;;7379171;19;20144;-63
2022/12/22 13:39:23;;;;;;;0.30;0.30;;;;;;;;;;7382107;19;21478;-63
2022/12/22 13:41:49;;;;;;;0.30;0.30;;;;;;;;;;7387505;19;20117;-63
2022/12/22 13:44:17;;;;;;;0.30;0.30;;;;;;;;;;7382831;19;20212;-64
2022/12/22 13:46:43;;;;;;;0.40;0.40;;;;;;;;;;7382295;19;20121;-63
2022/12/22 13:49:12;;;;;;;0.50;0.50;;;;;;;;;;7386050;19;20139;-64
2022/12/22 13:51:38;;;;;;;0.20;0.20;;;;;;;;;;7383140;19;20129;-64
2022/12/22 13:54:12;;;;;;;0.80;0.50;;;;;;;;;;7387393;19;20618;-64
2022/12/22 13:56:50;;;;;;;0.30;0.30;;;;;;;;;;7383653;19;20145;-64
2022/12/22 13:59:26;;;;;;;0.30;0.30;;;;;;;;;;7386869;19;20125;-64
2022/12/22 14:02:00;;;;;;;0.30;0.30;;;;;;;;;;7386045;19;20609;-64
2022/12/22 14:04:26;;;;;;;0.30;0.30;;;;;;;;;;7389194;19;20181;-64
2022/12/22 14:06:53;;;;;;;0.30;0.30;;;;;;;;;;7389915;19;20129;-64
2022/12/22 14:09:26;;;;;;;3.10;1.05;;;;;;;;;;7390341;19;20125;-64
2022/12/22 14:12:01;;;;;;;0.30;0.30;;;;;;;;;;7380775;19;20495;-64
2022/12/22 14:14:34;;;;;;;0.30;0.30;;;;;;;;;;7390924;19;20129;-64
2022/12/22 14:16:59;;;;;;;0.30;0.30;;;;;;;;;;7385741;19;20128;-64
2022/12/22 14:19:29;;;;;;;0.32;0.32;;;;;;;;;;7388474;19;20461;-64
2022/12/22 14:22:10;;;;;;;0.65;0.65;;;;;;;;;;7389224;19;20118;-64
2022/12/22 14:24:58;;;;;;;0.20;0.20;;;;;;;;;;7391308;19;20192;-64
2022/12/22 14:27:34;;;;;;;0.30;0.30;;;;;;;;;;7376895;19;20152;-64
2022/12/22 14:30:02;;;;;;;0.35;0.35;;;;;;;;;;7371143;19;20609;-64
2022/12/22 14:32:33;;;;;;;0.30;0.30;;;;;;;;;;7368743;19;20612;-64
2022/12/22 14:34:58;;;;;;;0.30;0.30;;;;;;;;;;7366018;19;20216;-64
2022/12/22 14:37:24;;;;;;;0.30;0.30;;;;;;;;;;7373244;19;20152;-64
2022/12/22 14:39:54;;;;;;;0.35;0.35;;;;;;;;;;7387716;19;20117;-65
2022/12/22 14:42:19;;;;;;;0.40;0.40;;;;;;;;;;7385241;19;20153;-65
2022/12/22 14:44:45;;;;;;;0.30;0.30;;;;;;;;;;7385874;19;20116;-64
2022/12/22 14:47:10;;;;;;;0.30;0.30;;;;;;;;;;7375430;19;20125;-64
2022/12/22 14:49:56;;;;;;;0.30;0.30;;;;;;;;;;7378435;19;20128;-64
2022/12/22 14:52:34;;;;;;;0.30;0.30;;;;;;;;;;7385880;19;20605;-64
2022/12/22 14:54:59;;;;;;;0.30;0.30;;;;;;;;;;7384584;19;20192;-65
2022/12/22 14:57:35;;;;;;;0.30;0.30;;;;;;;;;;7386952;19;20146;-64
2022/12/22 15:00:21;;;;;;;0.32;0.32;;;;;;;;;;7367647;19;20132;-64
2022/12/22 15:02:53;;;;;;;0.55;0.55;;;;;;;;;;7367954;19;20172;-64
2022/12/22 15:05:27;;;;;;;0.30;0.30;;;;;;;;;;7351144;19;20125;-64
2022/12/22 15:07:55;;;;;;;0.30;0.30;;;;;;;;;;7371305;19;20124;-64
2022/12/22 15:10:21;;;;;;;0.30;0.30;;;;;;;;;;7385410;19;20117;-64
2022/12/22 15:12:47;;;;;;;0.30;0.30;;;;;;;;;;7385664;19;20151;-64
2022/12/22 15:15:15;;;;;;;0.47;0.47;;;;;;;;;;7377794;19;20121;-64
2022/12/22 15:17:43;;;;;;;0.85;0.45;;;;;;;;;;7364671;19;20144;-64
2022/12/22 15:20:14;;;;;;;0.30;0.30;;;;;;;;;;7369146;19;20201;-64
2022/12/22 15:22:39;;;;;;;0.30;0.30;;;;;;;;;;7377429;19;20169;-64
2022/12/22 15:25:12;;;;;;;0.30;0.30;;;;;;;;;;7372405;19;20136;-64
2022/12/22 15:27:37;;;;;;;0.20;0.20;;;;;;;;;;7365096;19;20125;-64
2022/12/22 15:30:02;;;;;;;0.30;0.30;;;;;;;;;;7367432;19;20129;-63
2022/12/22 15:32:28;;;;;;;0.32;0.32;;;;;;;;;;7366257;19;20687;-64
2022/12/22 15:34:53;;;;;;;0.30;0.30;;;;;;;;;;7370775;19;20152;-64
2022/12/22 15:37:19;;;;;;;0.68;0.68;;;;;;;;;;7387615;19;20400;-63
2022/12/22 15:39:44;;;;;;;0.20;0.20;;;;;;;;;;7388276;19;20113;-63
2022/12/22 15:42:09;;;;;;;0.20;0.20;;;;;;;;;;7386905;19;20125;-63
2022/12/22 15:44:34;;;;;;;0.20;0.20;;;;;;;;;;7379269;19;20125;-63
2022/12/22 15:47:00;;;;;;;0.52;0.52;;;;;;;;;;7383132;19;20128;-63
2022/12/22 15:49:26;;;;;;;0.30;0.30;;;;;;;;;;7384578;19;20546;-64
2022/12/22 15:51:58;;;;;;;0.40;0.40;;;;;;;;;;7383394;19;20528;-64
2022/12/22 15:54:25;;;;;;;0.77;0.77;;;;;;;;;;7374523;19;20133;-63
2022/12/22 15:56:51;;;;;;;0.20;0.20;;;;;;;;;;7373740;19;20133;-64
2022/12/22 15:59:19;;;;;;;0.75;0.75;;;;;;;;;;7373944;19;20138;-63
2022/12/22 16:01:44;;;;;;;0.30;0.30;;;;;;;;;;7380606;19;20658;-64
2022/12/22 16:04:09;;;;;;;0.30;0.30;;;;;;;;;;7374089;19;20181;-63
2022/12/22 16:06:35;;;;;;;0.40;0.40;;;;;;;;;;7371150;19;20121;-63
2022/12/22 16:09:00;;;;;;;0.30;0.30;;;;;;;;;;7376841;19;20121;-63
2022/12/22 16:11:25;;;;;;;0.40;0.40;;;;;;;;;;7367641;19;20121;-64
2022/12/22 16:13:51;;;;;;;0.55;0.55;;;;;;;;;;7391151;19;20492;-64
2022/12/22 16:16:16;;;;;;;0.30;0.30;;;;;;;;;;7383612;19;20117;-64
2022/12/22 16:18:42;;;;;;;0.30;0.30;;;;;;;;;;7391207;19;20160;-64
2022/12/22 16:21:14;;;;;;;0.75;0.63;;;;;;;;;;7393210;19;20125;-64
2022/12/22 16:23:40;;;;;;;9.43;1.07;;;;;;;;;;7393369;19;20156;-64
2022/12/22 16:26:06;;;;;;;0.30;0.30;;;;;;;;;;7390325;19;20121;-64
2022/12/22 16:28:31;;;;;;;0.52;0.52;;;;;;;;;;7392493;19;20171;-64
2022/12/22 16:30:58;;;;;;;0.50;0.50;;;;;;;;;;7387871;19;20474;-64
2022/12/22 16:33:23;;;;;;;0.30;0.30;;;;;;;;;;7384698;19;20152;-64
2022/12/22 16:35:48;;;;;;;0.30;0.30;;;;;;;;;;7393639;19;20484;-64
2022/12/22 16:38:14;;;;;;;1.70;0.87;;;;;;;;;;7392474;19;20495;-64
2022/12/22 16:40:45;;;;;;;0.30;0.30;;;;;;;;;;7390118;19;20141;-64
2022/12/22 16:43:24;;;;;;;0.30;0.30;;;;;;;;;;7388309;19;20157;-64
2022/12/22 16:45:50;;;;;;;0.30;0.30;;;;;;;;;;7366945;19;20129;-64
2022/12/22 16:48:20;;;;;;;0.30;0.30;;;;;;;;;;7388905;19;20141;-63
2022/12/22 16:50:46;;;;;;;1.47;0.80;;;;;;;;;;7371771;19;20145;-63
2022/12/22 16:53:13;;;;;;;0.30;0.30;;;;;;;;;;7367559;19;20780;-63
2022/12/22 16:55:39;;;;;;;1.37;0.60;;;;;;;;;;7377379;19;20125;-64
2022/12/22 16:58:04;;;;;;;1.17;0.73;;;;;;;;;;7386236;19;20148;-64
2022/12/22 17:00:31;;;;;;;0.35;0.35;;;;;;;;;;7374563;19;20121;-64
2022/12/22 17:03:03;;;;;;;0.50;0.50;;;;;;;;;;7375865;19;20141;-64
2022/12/22 17:05:35;;;;;;;0.20;0.20;;;;;;;;;;7379856;19;20686;-64
2022/12/22 17:08:02;;;;;;;0.30;0.30;;;;;;;;;;7382951;19;20125;-64
2022/12/22 17:10:27;;;;;;;0.20;0.20;;;;;;;;;;7385266;19;20131;-64
2022/12/22 17:12:54;;;;;;;0.50;0.50;;;;;;;;;;7376362;19;20204;-64
2022/12/22 17:15:21;;;;;;;1.03;0.90;;;;;;;;;;7372793;19;20170;-64
2022/12/22 17:17:47;;;;;;;0.67;0.67;;;;;;;;;;7384114;19;20137;-65
2022/12/22 17:20:14;;;;;;;0.30;0.30;;;;;;;;;;7381266;19;20125;-64
2022/12/22 17:22:39;;;;;;;0.30;0.30;;;;;;;;;;7383402;19;20180;-64
2022/12/22 17:25:07;;;;;;;1.17;0.82;;;;;;;;;;7384292;19;20121;-64
2022/12/22 17:27:33;;;;;;;0.37;0.37;;;;;;;;;;7386149;19;20525;-64
2022/12/22 17:30:02;;;;;;;0.35;0.35;;;;;;;;;;7387772;19;20117;-64
2022/12/22 17:32:27;;;;;;;0.40;0.40;;;;;;;;;;7384175;19;20170;-63
2022/12/22 17:34:52;;;;;;;0.30;0.30;;;;;;;;;;7387610;19;20117;-64
2022/12/22 17:37:20;;;;;;;0.27;0.27;;;;;;;;;;7390082;19;20205;-65
2022/12/22 17:39:49;;;;;;;0.20;0.20;;;;;;;;;;7389988;19;20121;-63
2022/12/22 17:42:21;;;;;;;0.53;0.53;;;;;;;;;;7387621;19;20224;-64
2022/12/22 17:44:46;;;;;;;0.67;0.67;;;;;;;;;;7387283;19;20148;-64
2022/12/22 17:47:13;;;;;;;3.97;0.47;;;;;;;;;;7392210;19;20121;-64
2022/12/22 17:49:39;;;;;;;0.20;0.20;;;;;;;;;;7388813;19;20597;-64
2022/12/22 17:52:05;;;;;;;0.40;0.40;;;;;;;;;;7387781;19;20129;-63
2022/12/22 17:54:30;;;;;;;0.70;0.67;;;;;;;;;;7390676;19;20132;-63
2022/12/22 17:57:00;;;;;;;0.30;0.30;;;;;;;;;;7384946;19;20896;-63
2022/12/22 17:59:26;;;;;;;0.20;0.20;;;;;;;;;;7388215;19;20458;-63
2022/12/22 18:01:51;;;;;;;0.30;0.30;;;;;;;;;;7381678;19;20123;-63
2022/12/22 18:04:16;;;;;;;0.30;0.30;;;;;;;;;;7377359;19;20144;-63
2022/12/22 18:06:42;;;;;;;0.30;0.30;;;;;;;;;;7387053;19;20132;-63
2022/12/22 18:09:17;;;;;;;0.20;0.20;;;;;;;;;;7381962;19;20501;-63
2022/12/22 18:11:42;;;;;;;0.23;0.23;;;;;;;;;;7375995;19;20148;-64
2022/12/22 18:14:11;;;;;;;0.63;0.40;;;;;;;;;;7379580;19;20150;-64
2022/12/22 18:16:36;;;;;;;0.30;0.30;;;;;;;;;;7381739;19;20125;-64
2022/12/22 18:19:01;;;;;;;0.40;0.40;;;;;;;;;;7382776;19;20116;-64
2022/12/22 18:21:27;;;;;;;0.20;0.20;;;;;;;;;;7376752;19;20117;-64
2022/12/22 18:23:52;;;;;;;0.30;0.30;;;;;;;;;;7382041;19;20622;-63
2022/12/22 18:26:24;;;;;;;0.47;0.47;;;;;;;;;;7380964;19;20123;-64
2022/12/22 18:28:49;;;;;;;0.50;0.50;;;;;;;;;;7389324;19;20129;-64
2022/12/22 18:31:15;;;;;;;0.30;0.30;;;;;;;;;;7384927;19;20135;-64
2022/12/22 18:33:41;;;;;;;0.70;0.70;;;;;;;;;;7370052;19;20152;-64
2022/12/22 18:38:34;;;;;;;0.30;0.30;;;;;;;;;;7381110;19;20601;-63
